createdAt,value
2019-01-06T00:02:07.425Z,5.60
2019-01-06T00:05:02.909Z,5.60
2019-01-06T00:08:12.168Z,5.60
2019-01-06T00:11:21.603Z,5.60
2019-01-06T00:14:16.383Z,5.60
2019-01-06T00:17:11.619Z,5.50
2019-01-06T00:20:13.936Z,5.50
2019-01-06T00:23:05.602Z,5.50
2019-01-06T00:25:52.951Z,5.50
2019-01-06T00:28:45.401Z,5.60
2019-01-06T00:31:34.684Z,5.60
2019-01-06T00:34:32.261Z,5.60
2019-01-06T00:37:28.001Z,5.60
2019-01-06T00:40:21.792Z,5.50
2019-01-06T00:43:04.036Z,5.50
2019-01-06T00:45:53.293Z,5.50
2019-01-06T00:48:46.220Z,5.50
2019-01-06T00:51:41.614Z,5.50
2019-01-06T00:54:47.035Z,5.50
2019-01-06T00:57:38.087Z,5.50
2019-01-06T01:00:23.770Z,5.50
2019-01-06T01:03:12.951Z,5.50
2019-01-06T01:06:15.911Z,5.50
2019-01-06T01:09:05.383Z,5.40
2019-01-06T01:11:54.983Z,5.50
2019-01-06T01:15:01.351Z,5.50
2019-01-06T01:17:56.011Z,5.40
2019-01-06T01:20:43.503Z,5.30
2019-01-06T01:23:30.399Z,5.30
2019-01-06T01:26:10.294Z,5.30
2019-01-06T01:29:04.147Z,5.30
2019-01-06T01:31:53.339Z,5.30
2019-01-06T01:34:55.778Z,5.30
2019-01-06T01:37:46.429Z,5.40
2019-01-06T01:40:28.730Z,5.30
2019-01-06T01:43:31.083Z,5.40
2019-01-06T01:46:20.270Z,5.40
2019-01-06T01:49:24.890Z,5.40
2019-01-06T01:52:15.223Z,5.40
2019-01-06T01:55:04.936Z,5.40
2019-01-06T01:58:08.794Z,5.40
2019-01-06T02:01:07.605Z,5.40
2019-01-06T02:03:58.306Z,5.50
2019-01-06T02:06:55.309Z,5.40
2019-01-06T02:10:01.215Z,5.40
2019-01-06T02:12:47.370Z,5.50
2019-01-06T02:15:50.440Z,5.50
2019-01-06T02:18:36.950Z,5.40
2019-01-06T02:21:36.344Z,5.40
2019-01-06T02:24:25.395Z,5.30
2019-01-06T02:27:23.324Z,5.30
2019-01-06T02:30:12.872Z,5.30
2019-01-06T02:33:01.494Z,5.30
2019-01-06T02:35:50.711Z,5.30
2019-01-06T02:38:43.801Z,5.30
2019-01-06T02:41:46.245Z,5.40
2019-01-06T02:44:35.019Z,5.30
2019-01-06T02:47:28.059Z,5.40
2019-01-06T02:50:24.539Z,5.30
2019-01-06T02:53:13.137Z,5.40
2019-01-06T02:56:01.920Z,5.40
2019-01-06T02:58:55.079Z,5.40
2019-01-06T03:01:44.018Z,5.50
2019-01-06T03:04:36.008Z,5.40
2019-01-06T03:07:32.527Z,5.50
2019-01-06T03:10:21.586Z,5.40
2019-01-06T03:13:20.535Z,5.40
2019-01-06T03:16:05.517Z,5.40
2019-01-06T03:18:55.739Z,5.40
2019-01-06T03:21:55.442Z,5.30
2019-01-06T03:24:51.738Z,5.30
2019-01-06T03:27:37.491Z,5.30
2019-01-06T03:33:29.642Z,5.30
2019-01-06T03:36:18.546Z,5.30
2019-01-06T03:39:11.671Z,5.30
2019-01-06T03:42:04.789Z,5.30
2019-01-06T03:44:51.525Z,5.30
2019-01-06T03:47:42.114Z,5.30
2019-01-06T03:50:50.331Z,5.30
2019-01-06T03:53:49.383Z,5.40
2019-01-06T03:56:38.232Z,5.40
2019-01-06T03:59:31.241Z,5.30
2019-01-06T04:02:39.534Z,5.30
2019-01-06T04:05:28.338Z,5.30
2019-01-06T04:08:21.622Z,5.30
2019-01-06T04:11:25.893Z,5.30
2019-01-06T04:14:18.924Z,5.30
2019-01-06T04:17:07.605Z,5.30
2019-01-06T04:19:52.126Z,5.30
2019-01-06T04:22:40.915Z,5.30
2019-01-06T04:25:29.759Z,5.30
2019-01-06T04:28:18.663Z,5.30
2019-01-06T04:31:07.584Z,5.30
2019-01-06T04:34:09.921Z,5.30
2019-01-06T04:36:53.472Z,5.30
2019-01-06T04:39:43.604Z,5.30
2019-01-06T04:42:32.355Z,5.20
2019-01-06T04:45:17.511Z,5.20
2019-01-06T04:48:06.213Z,5.20
2019-01-06T04:50:55.188Z,5.20
2019-01-06T04:53:43.934Z,5.10
2019-01-06T04:56:34.151Z,5.10
2019-01-06T04:59:23.049Z,5.10
2019-01-06T05:02:22.243Z,5.10
2019-01-06T05:05:24.354Z,5.10
2019-01-06T05:08:14.586Z,5.10
2019-01-06T05:11:10.875Z,5.10
2019-01-06T05:14:13.438Z,5.10
2019-01-06T05:17:09.847Z,5.20
2019-01-06T05:20:00.386Z,5.20
2019-01-06T05:22:56.565Z,5.10
2019-01-06T05:25:45.277Z,5.20
2019-01-06T05:28:53.800Z,5.20
2019-01-06T05:31:42.582Z,5.10
2019-01-06T05:34:31.582Z,5.10
2019-01-06T05:37:33.999Z,5.20
2019-01-06T05:40:22.983Z,5.20
2019-01-06T05:43:11.889Z,5.20
2019-01-06T05:46:11.456Z,5.20
2019-01-06T05:49:00.058Z,5.10
2019-01-06T05:52:05.333Z,5.20
2019-01-06T05:55:07.391Z,5.10
2019-01-06T05:57:56.520Z,5.20
2019-01-06T06:00:47.915Z,5.10
2019-01-06T06:03:50.337Z,5.10
2019-01-06T06:06:43.353Z,5.10
2019-01-06T06:09:36.489Z,5.10
2019-01-06T06:12:29.615Z,5.20
2019-01-06T06:15:19.990Z,5.20
2019-01-06T06:18:10.278Z,5.30
2019-01-06T06:20:54.688Z,5.30
2019-01-06T06:23:58.062Z,5.30
2019-01-06T06:26:55.123Z,5.40
2019-01-06T06:29:45.407Z,5.40
2019-01-06T06:32:34.485Z,5.40
2019-01-06T06:35:21.660Z,5.40
2019-01-06T06:38:18.234Z,5.30
2019-01-06T06:41:14.556Z,5.40
2019-01-06T06:44:07.936Z,5.50
2019-01-06T06:47:12.323Z,5.50
2019-01-06T06:49:57.886Z,5.50
2019-01-06T06:52:51.239Z,5.50
2019-01-06T06:55:42.022Z,5.50
2019-01-06T06:58:38.543Z,5.50
2019-01-06T07:02:24.953Z,5.40
2019-01-06T07:05:24.018Z,5.40
2019-01-06T07:08:13.036Z,5.30
2019-01-06T07:11:01.978Z,5.40
2019-01-06T07:13:58.362Z,5.40
2019-01-06T07:17:49.944Z,5.50
2019-01-06T07:20:43.543Z,5.50
2019-01-06T07:23:46.182Z,5.50
2019-01-06T07:26:36.415Z,5.50
2019-01-06T07:29:19.049Z,5.40
2019-01-06T07:32:07.665Z,5.30
2019-01-06T07:34:58.007Z,5.40
2019-01-06T07:37:47.192Z,5.40
2019-01-06T07:40:45.614Z,5.30
2019-01-06T07:43:35.937Z,5.30
2019-01-06T07:46:24.927Z,5.20
2019-01-06T07:49:15.247Z,5.40
2019-01-06T07:52:10.011Z,5.30
2019-01-06T07:55:12.102Z,5.40
2019-01-06T07:58:00.805Z,5.40
2019-01-06T08:00:50.495Z,5.40
2019-01-06T08:03:40.431Z,5.30
2019-01-06T08:06:29.341Z,5.30
2019-01-06T08:09:22.531Z,5.30
2019-01-06T08:12:21.628Z,5.40
2019-01-06T08:15:30.091Z,5.40
2019-01-06T08:18:32.857Z,5.40
2019-01-06T08:21:24.827Z,5.30
2019-01-06T08:24:19.319Z,5.30
2019-01-06T08:27:08.237Z,5.40
2019-01-06T08:29:57.670Z,5.40
2019-01-06T08:32:40.939Z,5.40
2019-01-06T08:35:40.003Z,5.50
2019-01-06T08:38:33.767Z,5.50
2019-01-06T08:41:22.692Z,5.40
2019-01-06T08:44:29.929Z,5.50
2019-01-06T08:47:18.876Z,5.50
2019-01-06T08:50:07.803Z,5.50
2019-01-06T08:53:13.551Z,5.40
2019-01-06T08:56:09.509Z,5.40
2019-01-06T08:58:58.521Z,5.40
2019-01-06T09:01:47.478Z,5.40
2019-01-06T09:04:55.950Z,5.40
2019-01-06T09:07:44.722Z,5.40
2019-01-06T09:10:36.201Z,5.40
2019-01-06T09:13:32.564Z,5.30
2019-01-06T09:16:30.528Z,5.30
2019-01-06T09:19:36.096Z,5.30
2019-01-06T09:22:34.988Z,5.30
2019-01-06T09:25:41.842Z,5.30
2019-01-06T09:28:35.468Z,5.40
2019-01-06T09:31:39.806Z,5.50
2019-01-06T09:34:40.368Z,5.50
2019-01-06T09:37:32.038Z,5.50
2019-01-06T09:40:40.564Z,5.50
2019-01-06T09:43:46.024Z,5.60
2019-01-06T09:46:47.105Z,5.60
2019-01-06T09:49:52.549Z,5.60
2019-01-06T09:52:41.256Z,5.60
2019-01-06T09:55:43.796Z,5.60
2019-01-06T09:58:28.111Z,5.70
2019-01-06T10:01:19.109Z,5.60
2019-01-06T10:04:09.910Z,5.60
2019-01-06T10:06:58.685Z,5.70
2019-01-06T10:09:47.860Z,5.60
2019-01-06T10:12:42.525Z,5.70
2019-01-06T10:15:31.223Z,5.80
2019-01-06T10:18:27.688Z,5.70
2019-01-06T10:21:11.491Z,5.80
2019-01-06T10:24:10.708Z,5.80
2019-01-06T10:27:12.883Z,5.90
2019-01-06T10:30:01.727Z,5.90
2019-01-06T10:32:52.310Z,5.80
2019-01-06T10:36:00.819Z,5.80
2019-01-06T10:39:09.406Z,5.80
2019-01-06T10:42:02.644Z,5.90
2019-01-06T10:44:51.847Z,5.90
2019-01-06T10:47:40.789Z,5.90
2019-01-06T10:50:30.616Z,5.80
2019-01-06T10:53:19.461Z,5.90
2019-01-06T10:56:08.171Z,5.80
2019-01-06T10:59:04.989Z,5.70
2019-01-06T11:01:53.927Z,5.70
2019-01-06T11:04:42.603Z,5.70
2019-01-06T11:07:32.885Z,5.80
2019-01-06T11:10:22.134Z,5.90
2019-01-06T11:13:24.505Z,5.90
2019-01-06T11:16:23.687Z,6.00
2019-01-06T11:19:12.391Z,5.80
2019-01-06T11:22:02.027Z,5.80
2019-01-06T11:24:52.571Z,5.80
2019-01-06T11:27:55.056Z,5.80
2019-01-06T11:30:43.752Z,5.90
2019-01-06T11:33:46.183Z,5.80
2019-01-06T11:36:47.600Z,5.80
2019-01-06T11:39:37.850Z,5.90
2019-01-06T11:42:24.274Z,5.90
2019-01-06T11:45:17.325Z,5.90
2019-01-06T11:48:13.960Z,5.90
2019-01-06T11:51:06.371Z,5.90
2019-01-06T11:54:04.829Z,6.00
2019-01-06T11:57:01.403Z,5.90
2019-01-06T11:59:51.714Z,6.00
2019-01-06T12:02:39.129Z,6.00
2019-01-06T12:05:27.992Z,5.90
2019-01-06T12:08:14.719Z,5.90
2019-01-06T12:11:04.929Z,5.80
2019-01-06T12:14:04.066Z,5.80
2019-01-06T12:16:53.202Z,5.90
2019-01-06T12:19:42.099Z,5.90
2019-01-06T12:22:47.292Z,6.00
2019-01-06T12:25:35.763Z,6.00
2019-01-06T12:28:28.110Z,6.00
2019-01-06T12:31:27.223Z,6.00
2019-01-06T12:34:26.467Z,5.90
2019-01-06T12:37:15.243Z,5.90
2019-01-06T12:40:04.298Z,5.90
2019-01-06T12:42:57.248Z,5.90
2019-01-06T12:45:56.653Z,6.00
2019-01-06T12:48:45.361Z,6.00
2019-01-06T12:51:43.214Z,6.00
2019-01-06T12:54:23.912Z,6.00
2019-01-06T12:57:31.857Z,6.00
2019-01-06T13:00:31.286Z,6.10
2019-01-06T13:03:24.325Z,6.10
2019-01-06T13:06:26.673Z,6.10
2019-01-06T13:09:28.928Z,6.10
2019-01-06T13:12:25.253Z,6.00
2019-01-06T13:15:12.940Z,6.10
2019-01-06T13:17:59.127Z,6.10
2019-01-06T13:20:49.529Z,6.10
2019-01-06T13:23:49.694Z,6.10
2019-01-06T13:26:38.467Z,6.00
2019-01-06T13:29:28.234Z,6.00
2019-01-06T13:32:27.354Z,6.10
2019-01-06T13:35:25.415Z,6.20
2019-01-06T13:38:13.849Z,6.10
2019-01-06T13:41:10.163Z,6.10
2019-01-06T13:44:15.364Z,6.00
2019-01-06T13:47:05.574Z,6.00
2019-01-06T13:50:08.290Z,6.00
2019-01-06T13:52:56.941Z,6.10
2019-01-06T13:55:47.318Z,6.10
2019-01-06T13:58:49.845Z,6.10
2019-01-06T14:01:44.547Z,6.10
2019-01-06T14:04:28.641Z,6.10
2019-01-06T14:07:22.401Z,5.90
2019-01-06T14:10:16.977Z,5.90
2019-01-06T14:13:10.378Z,6.00
2019-01-06T14:16:06.519Z,6.00
2019-01-06T14:19:03.467Z,6.00
2019-01-06T14:21:49.580Z,5.90
2019-01-06T14:24:58.313Z,6.00
2019-01-06T14:27:54.533Z,6.00
2019-01-06T14:30:44.249Z,6.00
2019-01-06T14:33:37.507Z,6.00
2019-01-06T14:36:42.995Z,6.00
2019-01-06T14:39:35.154Z,6.10
2019-01-06T14:42:36.551Z,6.10
2019-01-06T14:45:27.068Z,6.00
2019-01-06T14:48:11.296Z,6.10
2019-01-06T14:51:02.248Z,6.10
2019-01-06T14:53:52.316Z,6.00
2019-01-06T14:56:41.277Z,5.90
2019-01-06T14:59:25.806Z,6.00
2019-01-06T15:02:17.696Z,6.00
2019-01-06T15:05:12.074Z,6.00
2019-01-06T15:08:00.806Z,6.10
2019-01-06T15:10:53.662Z,6.10
2019-01-06T15:13:42.408Z,6.00
2019-01-06T15:16:31.436Z,6.00
2019-01-06T15:19:21.789Z,6.00
2019-01-06T15:22:12.079Z,6.00
2019-01-06T15:25:01.140Z,6.00
2019-01-06T15:27:49.999Z,6.00
2019-01-06T15:30:47.376Z,6.00
2019-01-06T15:33:29.713Z,5.90
2019-01-06T15:36:18.440Z,5.90
2019-01-06T15:39:14.585Z,5.90
2019-01-06T15:42:16.301Z,5.80
2019-01-06T15:45:06.658Z,5.80
2019-01-06T15:47:55.462Z,5.70
2019-01-06T15:50:44.436Z,5.80
2019-01-06T15:53:40.850Z,5.60
2019-01-06T15:56:43.281Z,5.60
2019-01-06T15:59:46.112Z,5.60
2019-01-06T16:02:42.316Z,5.60
2019-01-06T16:05:32.674Z,5.70
2019-01-06T16:08:21.724Z,5.80
2019-01-06T16:11:11.609Z,5.80
2019-01-06T16:14:00.620Z,5.90
2019-01-06T16:16:50.354Z,6.00
2019-01-06T16:19:48.108Z,6.00
2019-01-06T16:22:32.525Z,6.00
2019-01-06T16:25:25.893Z,6.10
2019-01-06T16:28:14.569Z,6.10
2019-01-06T16:31:11.063Z,6.30
2019-01-06T16:33:59.761Z,6.30
2019-01-06T16:36:55.846Z,6.30
2019-01-06T16:39:44.750Z,6.30
2019-01-06T16:42:40.922Z,6.40
2019-01-06T16:45:29.585Z,6.50
2019-01-06T16:48:18.358Z,6.50
2019-01-06T16:51:07.354Z,6.40
2019-01-06T16:54:01.703Z,6.30
2019-01-06T16:56:57.878Z,6.40
2019-01-06T16:59:57.396Z,6.40
2019-01-06T17:02:46.110Z,6.30
2019-01-06T17:05:29.645Z,6.30
2019-01-06T17:08:35.339Z,6.30
2019-01-06T17:11:27.276Z,6.20
2019-01-06T17:14:16.968Z,6.00
2019-01-06T17:17:05.843Z,5.90
2019-01-06T17:19:56.163Z,5.90
2019-01-06T17:22:44.829Z,5.90
2019-01-06T17:25:38.189Z,5.90
2019-01-06T17:28:27.189Z,5.90
2019-01-06T17:31:32.580Z,6.00
2019-01-06T17:34:21.349Z,5.90
2019-01-06T17:37:11.640Z,6.00
2019-01-06T17:40:11.145Z,6.00
2019-01-06T17:43:01.354Z,6.10
2019-01-06T17:45:53.148Z,6.20
2019-01-06T17:49:01.597Z,6.20
2019-01-06T17:51:57.465Z,6.30
2019-01-06T17:54:46.148Z,6.30
2019-01-06T17:57:54.286Z,6.40
2019-01-06T18:00:51.360Z,6.50
2019-01-06T18:03:44.731Z,6.50
2019-01-06T18:06:41.317Z,6.50
2019-01-06T18:09:30.079Z,6.40
2019-01-06T18:12:23.395Z,6.40
2019-01-06T18:15:07.548Z,6.50
2019-01-06T18:18:00.588Z,6.50
2019-01-06T18:21:03.029Z,6.40
2019-01-06T18:23:59.172Z,6.40
2019-01-06T18:27:01.932Z,6.30
2019-01-06T18:29:54.039Z,6.30
2019-01-06T18:32:43.003Z,6.30
2019-01-06T18:35:31.985Z,6.30
2019-01-06T18:38:31.555Z,6.40
2019-01-06T18:41:40.068Z,6.30
2019-01-06T18:44:51.297Z,6.20
2019-01-06T18:47:44.566Z,6.10
2019-01-06T18:50:33.499Z,6.10
2019-01-06T18:53:33.231Z,6.10
2019-01-06T18:56:32.198Z,6.10
2019-01-06T18:59:37.592Z,6.10
2019-01-06T19:02:40.943Z,6.20
2019-01-06T19:05:29.999Z,6.20
2019-01-06T19:08:20.324Z,6.20
2019-01-06T19:11:19.545Z,6.20
2019-01-06T19:14:15.586Z,6.20
2019-01-06T19:17:21.112Z,6.10
2019-01-06T19:20:17.331Z,6.00
2019-01-06T19:23:06.092Z,5.90
2019-01-06T19:25:54.865Z,5.90
2019-01-06T19:28:48.751Z,6.00
2019-01-06T19:31:37.391Z,6.00
2019-01-06T19:34:25.003Z,6.00
2019-01-06T19:37:18.401Z,6.00
2019-01-06T19:40:07.216Z,6.00
2019-01-06T19:42:59.084Z,5.80
2019-01-06T19:45:58.478Z,5.80
2019-01-06T19:49:01.068Z,5.90
2019-01-06T19:51:52.456Z,5.90
2019-01-06T19:54:52.482Z,5.80
2019-01-06T19:57:57.974Z,5.90
2019-01-06T20:00:41.903Z,5.90
2019-01-06T20:03:31.734Z,6.00
2019-01-06T20:06:22.466Z,5.90
2019-01-06T20:09:15.860Z,5.90
2019-01-06T20:12:12.064Z,5.90
2019-01-06T20:15:01.147Z,5.90
2019-01-06T20:17:48.117Z,5.90
2019-01-06T20:20:40.049Z,5.90
2019-01-06T20:23:30.955Z,5.90
2019-01-06T20:26:36.471Z,5.90
2019-01-06T20:29:26.180Z,5.90
2019-01-06T20:32:17.188Z,6.00
2019-01-06T20:35:18.196Z,5.90
2019-01-06T20:38:14.679Z,5.90
2019-01-06T20:41:03.463Z,5.90
2019-01-06T20:44:05.625Z,5.80
2019-01-06T20:47:09.950Z,5.80
2019-01-06T20:50:03.201Z,5.80
2019-01-06T20:52:53.546Z,5.80
2019-01-06T20:55:47.503Z,5.80
2019-01-06T20:58:37.741Z,5.80
2019-01-06T21:01:37.144Z,5.80
2019-01-06T21:04:25.489Z,5.80
2019-01-06T21:07:21.576Z,5.80
2019-01-06T21:10:18.093Z,5.80
2019-01-06T21:13:07.081Z,5.80
2019-01-06T21:16:02.467Z,5.70
2019-01-06T21:18:51.141Z,5.70
2019-01-06T21:21:33.208Z,5.70
2019-01-06T21:24:18.477Z,5.70
2019-01-06T21:27:08.901Z,5.70
2019-01-06T21:30:04.071Z,5.70
2019-01-06T21:32:53.337Z,5.70
2019-01-06T21:35:42.449Z,5.70
2019-01-06T21:38:37.310Z,5.70
2019-01-06T21:41:28.361Z,5.70
2019-01-06T21:44:17.206Z,5.70
2019-01-06T21:47:23.713Z,5.70
2019-01-06T21:50:14.025Z,5.60
2019-01-06T21:53:06.343Z,5.50
2019-01-06T21:56:11.874Z,5.50
2019-01-06T21:59:00.952Z,5.60
2019-01-06T22:02:00.078Z,5.50
2019-01-06T22:04:41.464Z,5.50
2019-01-06T22:07:42.732Z,5.50
2019-01-06T22:10:31.768Z,5.50
2019-01-06T22:13:37.332Z,5.50
2019-01-06T22:16:31.099Z,5.40
2019-01-06T22:19:21.441Z,5.40
2019-01-06T22:22:12.341Z,5.50
2019-01-06T22:24:57.213Z,5.40
2019-01-06T22:27:42.832Z,5.40
2019-01-06T22:30:37.161Z,5.40
2019-01-06T22:33:22.336Z,5.50
2019-01-06T22:36:11.290Z,5.50
2019-01-06T22:39:07.661Z,5.40
2019-01-06T22:42:00.791Z,5.50
2019-01-06T22:45:02.867Z,5.50
2019-01-06T22:47:52.020Z,5.60
2019-01-06T22:50:45.046Z,5.60
2019-01-06T22:53:38.222Z,5.60
2019-01-06T22:56:31.627Z,5.70
2019-01-06T22:59:24.680Z,5.60
2019-01-06T23:02:17.751Z,5.60
2019-01-06T23:05:13.218Z,5.60
2019-01-06T23:08:06.307Z,5.60
2019-01-06T23:11:08.879Z,5.50
2019-01-06T23:13:58.490Z,5.50
2019-01-06T23:16:47.298Z,5.40
2019-01-06T23:19:36.179Z,5.40
2019-01-06T23:22:26.630Z,5.40
2019-01-06T23:25:35.001Z,5.40
2019-01-06T23:28:37.470Z,5.40
2019-01-06T23:31:39.922Z,5.50
2019-01-06T23:34:33.148Z,5.40
2019-01-06T23:37:27.633Z,5.40
2019-01-06T23:40:26.713Z,5.40
2019-01-06T23:43:08.769Z,5.40
2019-01-06T23:46:12.664Z,5.40
2019-01-06T23:48:56.637Z,5.40
2019-01-06T23:51:59.251Z,5.30
2019-01-06T23:54:49.410Z,5.40
2019-01-06T23:57:51.612Z,5.40
